To NAV CANADA Home Page Login to a new session Search on AWWS site Feedback and Comments Disclaimer Vers la page française équivalente Tips FAQ What's new on the site To the Forecasts and Observations / NOTAM section To "File a Flight Plan" website Publications and other links Update of the User's profile FIC Telephone Numbers My Weather Data Folder Route Weather Data Regional Weather Data Local Weather Data To the Forecasts and Observations / NOTAM section
Request Generated 02/14/2016 at 20:47:35 UTC . Weather information available at that time is displayed.

METAR/TAF

KUUJJUAQ/QC    

SPECI CYVP 142034Z 32011G17KT 1SM R07/P6000FT/D -SN DRSN VV008
M15/M17 A2941 RMK SN8 CIG VRB 6-10 VIS VRB 3/4-11/4 SLP966=
METAR CYVP 142000Z CCA 32012KT 2SM -SN DRSN VV010 M14/M17 A2941 RMK
SN8 VIS VRB 11/2-21/2 /S01/ SLP963=
METAR CYVP 142000Z 32012KT 2SM -SN DRSN VV010 M14/M17 A2941 RMK SN8
VIS VRB 11/2-21/2 SLP963=
SPECI CYVP 141915Z 34014G23KT 2SM -SN DRSN VV008 M14/M17 A2939 RMK
SN8 VIS VRB 11/2-21/2 SLP960=
METAR CYVP 141900Z 34013G21KT 1 1/2SM -SN BLSN VV009 M14/M17 A2939
RMK SN8 SLP958=
METAR CYVP 141800Z 34016G24KT 1SM R07/P6000FT/N -SN BLSN VV008
M14/M17 A2939 RMK SN8 SLP957=

TAF CYVP 141743Z 1418/1506 34015G25KT 1SM -SN BLSN VV007 TEMPO
1418/1502 3SM -SN SCT007 OVC020
FM150200 32012G22KT 5SM -SN OVC025
RMK NXT FCST BY 150000Z=
Your time UTC time
Weather data provided by Environment Canada and NAV CANADA